Time;durP1;ratioP1;P1;durP2;ratioP2;P2;SDS_P1;SDS_P2;PMS_P1;PMS_P2;Temp;Humidity;BMP_temperature;BMP_pressure;BME280_temperature;BME280_humidity;BME280_pressure;Samples;Min_cycle;Max_cycle;Signal;HPM_P1;HPM_P2
2023/09/22 00:00:15;;;;;;;;;;;;;;;-140.72;100.00;52902.22;5069229;28;19920;-68
2023/09/22 00:02:40;;;;;;;;;;;;;;;-140.72;100.00;52930.66;5068602;28;20283;-68
2023/09/22 00:05:07;;;;;;;;;;;;;;;-140.72;100.00;52920.50;5071459;28;19948;-68
2023/09/22 00:07:32;;;;;;;;;;;;;;;-140.72;100.00;52944.84;5069370;28;19921;-68
2023/09/22 00:09:57;;;;;;;;;;;;;;;-140.72;100.00;52877.88;5066866;28;19921;-68
2023/09/22 00:12:22;;;;;;;;;;;;;;;-140.72;100.00;52881.94;5066955;28;19975;-68
2023/09/22 00:14:48;;;;;;;;;;;;;;;-140.72;100.00;52934.69;5069693;28;19925;-68
2023/09/22 00:17:13;;;;;;;;;;;;;;;-140.72;100.00;52890.06;5070381;28;19926;-68
2023/09/22 00:19:38;;;;;;;;;;;;;;;-140.72;100.00;52886.00;5069800;28;19920;-68
2023/09/22 00:22:05;;;;;;;;;;;;;;;-140.72;100.00;52883.97;5068889;28;19974;-68
2023/09/22 00:24:30;;;;;;;;;;;;;;;-140.72;100.00;52926.59;5073177;28;19924;-68
2023/09/22 00:26:55;;;;;;;;;;;;;;;-140.72;100.00;52930.66;5069786;28;19936;-68
2023/09/22 00:29:21;;;;;;;;;;;;;;;-140.72;100.00;52886.00;5066835;28;19960;-68
2023/09/22 00:31:46;;;;;;;;;;;;;;;-140.72;100.00;52859.63;5073611;28;19921;-68
2023/09/22 00:34:11;;;;;;;;;;;;;;;-140.72;100.00;52894.13;5072949;28;19966;-68
2023/09/22 00:36:36;;;;;;;;;;;;;;;-140.72;100.00;52902.22;5069073;28;20366;-68
2023/09/22 00:39:03;;;;;;;;;;;;;;;-140.72;100.00;52898.16;5070796;28;19929;-68
2023/09/22 00:41:29;;;;;;;;;;;;;;;-140.72;100.00;52898.16;5067529;28;19920;-68
2023/09/22 00:43:54;;;;;;;;;;;;;;;-140.72;100.00;52902.22;5070391;28;19942;-68
2023/09/22 00:46:21;;;;;;;;;;;;;;;-140.72;100.00;52950.94;5065411;28;19925;-68
2023/09/22 00:48:48;;;;;;;;;;;;;;;-140.72;100.00;52936.72;5068552;28;20283;-68
2023/09/22 00:51:14;;;;;;;;;;;;;;;-140.72;100.00;52900.19;5064105;28;19929;-68
2023/09/22 00:53:40;;;;;;;;;;;;;;;-140.72;100.00;52904.25;5065570;28;19982;-68
2023/09/22 00:56:06;;;;;;;;;;;;;;;-140.72;100.00;52910.34;5069504;28;19921;-68
2023/09/22 00:58:32;;;;;;;;;;;;;;;-140.72;100.00;52906.28;5069756;28;19920;-68
2023/09/22 01:00:58;;;;;;;;;;;;;;;-140.72;100.00;52940.78;5067170;28;20367;-68
2023/09/22 01:03:24;;;;;;;;;;;;;;;-140.72;100.00;52906.28;5070217;28;19985;-68
2023/09/22 01:05:49;;;;;;;;;;;;;;;-140.72;100.00;52959.06;5067734;28;19929;-68
2023/09/22 01:08:15;;;;;;;;;;;;;;;-140.72;100.00;52914.41;5069826;28;20366;-69
2023/09/22 01:10:42;;;;;;;;;;;;;;;-140.72;100.00;52922.53;5068477;28;19920;-70
2023/09/22 01:13:09;;;;;;;;;;;;;;;-140.72;100.00;52910.34;5068764;28;20279;-68
2023/09/22 01:15:34;;;;;;;;;;;;;;;-140.72;100.00;52922.53;5068418;28;20451;-68
2023/09/22 01:18:00;;;;;;;;;;;;;;;-140.72;100.00;52938.75;5070925;28;20018;-68
2023/09/22 01:20:25;;;;;;;;;;;;;;;-140.72;100.00;52881.94;5068308;28;19921;-68
2023/09/22 01:22:50;;;;;;;;;;;;;;;-140.72;100.00;52918.47;5073822;28;19920;-68
2023/09/22 01:25:15;;;;;;;;;;;;;;;-140.72;100.00;52934.69;5068271;28;19959;-68
2023/09/22 01:27:41;;;;;;;;;;;;;;;-140.72;100.00;52898.16;5069675;28;19924;-68
2023/09/22 01:30:07;;;;;;;;;;;;;;;-140.72;100.00;52924.56;5067937;28;19921;-68
2023/09/22 01:32:33;;;;;;;;;;;;;;;-140.72;100.00;52936.72;5067251;28;19921;-68
2023/09/22 01:34:58;;;;;;;;;;;;;;;-140.72;100.00;52902.22;5070625;28;20015;-68
2023/09/22 01:37:28;;;;;;;;;;;;;;;-140.72;100.00;52930.66;5066980;28;19921;-68
2023/09/22 01:39:55;;;;;;;;;;;;;;;-140.72;100.00;52938.75;5067541;28;20394;-68
2023/09/22 01:42:20;;;;;;;;;;;;;;;-140.72;100.00;52908.31;5064158;28;19964;-68
2023/09/22 01:44:46;;;;;;;;;;;;;;;-140.72;100.00;52904.25;5069756;28;19963;-68
2023/09/22 01:47:11;;;;;;;;;;;;;;;-140.72;100.00;52918.47;5066281;28;20004;-68
2023/09/22 01:49:36;;;;;;;;;;;;;;;-140.72;100.00;52924.56;5069565;28;20578;-68
2023/09/22 01:52:02;;;;;;;;;;;;;;;-140.72;100.00;52952.97;5070820;28;19920;-68
2023/09/22 01:54:27;;;;;;;;;;;;;;;-140.72;100.00;52924.56;5068693;28;19920;-68
2023/09/22 01:56:52;;;;;;;;;;;;;;;-140.72;100.00;52908.31;5068693;28;19920;-68
2023/09/22 01:59:17;;;;;;;;;;;;;;;-140.72;100.00;52896.16;5068516;28;19928;-68
2023/09/22 02:01:46;;;;;;;;;;;;;;;-140.72;100.00;52924.56;5065518;28;20041;-68
2023/09/22 02:04:11;;;;;;;;;;;;;;;-140.72;100.00;52934.69;5081739;28;19920;-68
2023/09/22 02:06:36;;;;;;;;;;;;;;;-140.72;100.00;52916.44;5074807;28;19931;-68
2023/09/22 02:09:08;;;;;;;;;;;;;;;-140.72;100.00;52955.00;5063974;28;19925;-68
2023/09/22 02:11:33;;;;;;;;;;;;;;;-140.72;100.00;52942.81;5062807;28;20461;-68
2023/09/22 02:13:59;;;;;;;;;;;;;;;-140.72;100.00;52918.47;5075737;28;20019;-68
2023/09/22 02:16:25;;;;;;;;;;;;;;;-140.72;100.00;52922.53;5066937;28;19924;-68
2023/09/22 02:19:20;;;;;;;;;;;;;;;-140.72;100.00;52922.53;5065558;28;19927;-68
2023/09/22 02:21:46;;;;;;;;;;;;;;;-140.72;100.00;52922.53;5082236;28;19924;-68
2023/09/22 02:24:11;;;;;;;;;;;;;;;-140.72;100.00;52926.59;5068483;28;19956;-68
2023/09/22 02:26:36;;;;;;;;;;;;;;;-140.72;100.00;52950.94;5068271;28;20312;-68
2023/09/22 02:29:01;;;;;;;;;;;;;;;-140.72;100.00;52938.75;5073912;28;20299;-68
2023/09/22 02:31:27;;;;;;;;;;;;;;;-140.72;100.00;52914.41;5073611;28;19916;-68
2023/09/22 02:34:05;;;;;;;;;;;;;;;-140.72;100.00;52928.63;5062770;28;19955;-68
2023/09/22 02:36:30;;;;;;;;;;;;;;;-140.72;100.00;52928.63;5075901;28;19924;-68
2023/09/22 02:38:56;;;;;;;;;;;;;;;-140.72;100.00;52948.91;5075599;28;20062;-68
2023/09/22 02:41:22;;;;;;;;;;;;;;;-140.72;100.00;52894.13;5070094;28;19932;-68
2023/09/22 02:43:47;;;;;;;;;;;;;;;-140.72;100.00;52898.16;5073469;28;19921;-68
2023/09/22 02:46:12;;;;;;;;;;;;;;;-140.72;100.00;52932.66;5065576;28;19939;-68
2023/09/22 02:48:37;;;;;;;;;;;;;;;-140.72;100.00;52926.59;5071716;28;19927;-68
2023/09/22 02:51:07;;;;;;;;;;;;;;;-140.72;100.00;52926.59;5070910;28;19920;-68
2023/09/22 02:53:32;;;;;;;;;;;;;;;-140.72;100.00;52912.38;5071481;28;19927;-68
2023/09/22 02:56:01;;;;;;;;;;;;;;;-140.72;100.00;52916.44;5071172;28;19920;-68
2023/09/22 02:58:27;;;;;;;;;;;;;;;-140.72;100.00;52914.41;5071653;28;20070;-68
2023/09/22 03:00:52;;;;;;;;;;;;;;;-140.72;100.00;52946.88;5073117;28;20378;-69
2023/09/22 03:03:17;;;;;;;;;;;;;;;-140.72;100.00;52928.63;5072864;28;19921;-68
2023/09/22 03:05:42;;;;;;;;;;;;;;;-140.72;100.00;52912.38;5071906;28;19928;-68
2023/09/22 03:08:08;;;;;;;;;;;;;;;-140.72;100.00;52924.56;5068523;28;19952;-68
2023/09/22 03:10:33;;;;;;;;;;;;;;;-140.72;100.00;52898.16;5072196;28;20279;-67
2023/09/22 03:12:58;;;;;;;;;;;;;;;-140.72;100.00;52942.81;5073117;28;19928;-67
2023/09/22 03:15:24;;;;;;;;;;;;;;;-140.72;100.00;52938.75;5069224;28;19920;-67
2023/09/22 03:17:49;;;;;;;;;;;;;;;-140.72;100.00;52918.47;5072606;28;20054;-67
2023/09/22 03:20:16;;;;;;;;;;;;;;;-140.72;100.00;52881.94;5071663;28;19920;-67
2023/09/22 03:22:42;;;;;;;;;;;;;;;-140.72;100.00;52936.72;5071038;28;20359;-67
2023/09/22 03:25:10;;;;;;;;;;;;;;;-140.72;100.00;52906.28;5081103;28;19921;-68
2023/09/22 03:27:36;;;;;;;;;;;;;;;-140.72;100.00;52942.81;5070490;28;19927;-67
2023/09/22 03:30:05;;;;;;;;;;;;;;;-140.72;100.00;52932.66;5073835;28;20007;-67
2023/09/22 03:32:31;;;;;;;;;;;;;;;-140.72;100.00;52946.88;5071253;28;20305;-68
2023/09/22 03:34:57;;;;;;;;;;;;;;;-140.72;100.00;52930.66;5072781;28;19921;-67
2023/09/22 03:37:27;;;;;;;;;;;;;;;-140.72;100.00;52930.66;5070102;28;19939;-68
2023/09/22 03:39:52;;;;;;;;;;;;;;;-140.72;100.00;52955.00;5072806;28;19997;-68
2023/09/22 03:42:17;;;;;;;;;;;;;;;-140.72;100.00;52946.88;5069158;28;19929;-68
2023/09/22 03:44:42;;;;;;;;;;;;;;;-140.72;100.00;52898.16;5072408;28;20378;-68
2023/09/22 03:47:07;;;;;;;;;;;;;;;-140.72;100.00;52928.63;5069720;28;20409;-68
2023/09/22 03:49:33;;;;;;;;;;;;;;;-140.72;100.00;52910.34;5069653;28;19932;-68
2023/09/22 03:51:58;;;;;;;;;;;;;;;-140.72;100.00;52950.94;5069875;28;19932;-68
2023/09/22 03:54:23;;;;;;;;;;;;;;;-140.72;100.00;52924.56;5075854;28;19944;-68
2023/09/22 03:56:48;;;;;;;;;;;;;;;-140.72;100.00;52959.06;5071739;28;20023;-68
2023/09/22 03:59:13;;;;;;;;;;;;;;;-140.72;100.00;52938.75;5072513;28;19921;-68
2023/09/22 04:01:39;;;;;;;;;;;;;;;-140.72;100.00;52952.97;5071481;28;20071;-68
2023/09/22 04:04:04;;;;;;;;;;;;;;;-140.72;100.00;52940.78;5072437;28;20444;-68
2023/09/22 04:06:30;;;;;;;;;;;;;;;-140.72;100.00;52948.91;5073357;28;19932;-68
2023/09/22 04:08:56;;;;;;;;;;;;;;;-140.72;100.00;52928.63;5069723;28;20011;-68
2023/09/22 04:11:21;;;;;;;;;;;;;;;-140.72;100.00;52922.53;5072443;28;19920;-68
2023/09/22 04:13:48;;;;;;;;;;;;;;;-140.72;100.00;52932.66;5065416;28;19928;-68
2023/09/22 04:16:14;;;;;;;;;;;;;;;-140.72;100.00;52918.47;5074018;28;19920;-68
2023/09/22 04:18:39;;;;;;;;;;;;;;;-140.72;100.00;52987.47;5068589;28;20264;-68
2023/09/22 04:21:07;;;;;;;;;;;;;;;-140.72;100.00;52948.91;5072313;28;19959;-68
2023/09/22 04:23:32;;;;;;;;;;;;;;;-140.72;100.00;52928.63;5075263;28;19920;-68
2023/09/22 04:26:09;;;;;;;;;;;;;;;-140.72;100.00;52916.44;5073227;28;19938;-68
2023/09/22 04:28:34;;;;;;;;;;;;;;;-140.72;100.00;52955.00;5072121;28;20397;-68
2023/09/22 04:31:01;;;;;;;;;;;;;;;-140.72;100.00;52950.94;5073876;28;19928;-68
2023/09/22 04:33:26;;;;;;;;;;;;;;;-140.72;100.00;52932.66;5068240;28;19921;-68
2023/09/22 04:35:52;;;;;;;;;;;;;;;-140.72;100.00;52940.78;5068868;28;19935;-68
2023/09/22 04:38:18;;;;;;;;;;;;;;;-140.72;100.00;52900.19;5068080;28;20382;-68
2023/09/22 04:40:44;;;;;;;;;;;;;;;-140.72;100.00;52914.41;5069601;28;19951;-69
2023/09/22 04:43:11;;;;;;;;;;;;;;;-140.72;100.00;52946.88;5068960;28;20441;-68
2023/09/22 04:45:45;;;;;;;;;;;;;;;-140.72;100.00;52912.38;5070756;28;20277;-68
2023/09/22 04:48:11;;;;;;;;;;;;;;;-140.72;100.00;52934.69;5068352;28;19932;-69
2023/09/22 04:50:37;;;;;;;;;;;;;;;-140.72;100.00;52926.59;5067068;28;20026;-69
2023/09/22 04:53:04;;;;;;;;;;;;;;;-140.72;100.00;52944.84;5069210;28;19920;-71
2023/09/22 04:55:31;;;;;;;;;;;;;;;-140.72;100.00;52912.38;5069192;28;19934;-68
2023/09/22 04:57:56;;;;;;;;;;;;;;;-140.72;100.00;52906.28;5071558;28;20007;-69
2023/09/22 05:00:24;;;;;;;;;;;;;;;-140.72;100.00;52906.28;5080802;28;19920;-68
2023/09/22 05:02:55;;;;;;;;;;;;;;;-140.72;100.00;52918.47;5067123;28;19921;-69
2023/09/22 05:05:22;;;;;;;;;;;;;;;-140.72;100.00;52914.41;5068794;28;19931;-69
2023/09/22 05:07:47;;;;;;;;;;;;;;;-140.72;100.00;52934.69;5066803;28;19920;-71
2023/09/22 05:10:13;;;;;;;;;;;;;;;-140.72;100.00;52920.50;5071671;28;20374;-73
2023/09/22 05:12:38;;;;;;;;;;;;;;;-140.72;100.00;52926.59;5066078;28;19929;-72
2023/09/22 05:15:05;;;;;;;;;;;;;;;-140.72;100.00;52910.34;5069235;28;19925;-72
2023/09/22 05:17:30;;;;;;;;;;;;;;;-140.72;100.00;52922.53;5079173;28;19932;-72
2023/09/22 05:19:55;;;;;;;;;;;;;;;-140.72;100.00;52944.84;5066157;28;20301;-72
2023/09/22 05:22:20;;;;;;;;;;;;;;;-140.72;100.00;52924.56;5067476;28;20325;-72
2023/09/22 05:24:46;;;;;;;;;;;;;;;-140.72;100.00;52940.78;5066188;28;19924;-72
2023/09/22 05:27:11;;;;;;;;;;;;;;;-140.72;100.00;52912.38;5065019;28;20391;-74
2023/09/22 05:29:37;;;;;;;;;;;;;;;-140.72;100.00;52918.47;5063970;28;19956;-68
2023/09/22 05:32:02;;;;;;;;;;;;;;;-140.72;100.00;52934.69;5066692;28;19920;-68
2023/09/22 05:34:28;;;;;;;;;;;;;;;-140.72;100.00;52926.59;5065587;28;19935;-69
2023/09/22 05:36:53;;;;;;;;;;;;;;;-140.72;100.00;52965.16;5063184;28;21086;-68
2023/09/22 05:39:18;;;;;;;;;;;;;;;-140.72;100.00;52920.50;5070047;28;19969;-68
2023/09/22 05:41:50;;;;;;;;;;;;;;;-140.72;100.00;52930.66;5065276;28;19927;-68
2023/09/22 05:44:17;;;;;;;;;;;;;;;-140.72;100.00;52898.16;5068824;28;19921;-68
2023/09/22 05:46:43;;;;;;;;;;;;;;;-140.72;100.00;52930.66;5063936;28;19974;-67
2023/09/22 05:49:14;;;;;;;;;;;;;;;-140.72;100.00;52910.34;5068168;28;19920;-68
2023/09/22 05:51:39;;;;;;;;;;;;;;;-140.72;100.00;52944.84;5064372;28;19960;-68
2023/09/22 05:54:04;;;;;;;;;;;;;;;-140.72;100.00;52928.63;5068071;28;19955;-68
2023/09/22 05:56:31;;;;;;;;;;;;;;;-140.72;100.00;52936.72;5068584;28;19947;-68
2023/09/22 05:58:56;;;;;;;;;;;;;;;-140.72;100.00;52926.59;5065207;28;20260;-68
2023/09/22 06:01:37;;;;;;;;;;;;;;;-140.72;100.00;52934.69;5066222;28;19928;-69
2023/09/22 06:04:05;;;;;;;;;;;;;;;-140.72;100.00;52955.00;5067645;28;20375;-70
2023/09/22 06:06:32;;;;;;;;;;;;;;;-140.72;100.00;52944.84;5067917;28;19931;-68
2023/09/22 06:08:57;;;;;;;;;;;;;;;-140.72;100.00;52938.75;5073120;28;19921;-68
2023/09/22 06:11:54;;;;;;;;;;;;;;;-140.72;100.00;52936.72;5058243;28;19977;-68
2023/09/22 06:14:20;;;;;;;;;;;;;;;-140.72;100.00;52924.56;5060241;28;20015;-68
2023/09/22 06:16:45;;;;;;;;;;;;;;;-140.72;100.00;52906.28;5072680;28;19955;-68
2023/09/22 06:19:10;;;;;;;;;;;;;;;-140.72;100.00;52910.34;5069341;28;20351;-68
2023/09/22 06:21:37;;;;;;;;;;;;;;;-140.72;100.00;52896.16;5077122;28;19973;-68
2023/09/22 06:24:03;;;;;;;;;;;;;;;-140.72;100.00;52940.78;5074033;28;19916;-69
2023/09/22 06:26:28;;;;;;;;;;;;;;;-140.72;100.00;52922.53;5072891;28;20331;-68
2023/09/22 06:28:53;;;;;;;;;;;;;;;-140.72;100.00;52914.41;5069752;28;19969;-68
2023/09/22 06:31:19;;;;;;;;;;;;;;;-140.72;100.00;52946.88;5070194;28;19985;-68
2023/09/22 06:33:44;;;;;;;;;;;;;;;-140.72;100.00;52906.28;5071258;28;20018;-68
2023/09/22 06:36:09;;;;;;;;;;;;;;;-140.72;100.00;52938.75;5083904;28;19927;-68
2023/09/22 06:38:34;;;;;;;;;;;;;;;-140.72;100.00;52955.00;5072089;28;19916;-68
2023/09/22 06:41:00;;;;;;;;;;;;;;;-140.72;100.00;52930.66;5074823;28;19924;-68
2023/09/22 06:43:26;;;;;;;;;;;;;;;-140.72;100.00;52881.94;5067811;28;19927;-68
2023/09/22 06:45:52;;;;;;;;;;;;;;;-140.72;100.00;52888.03;5072982;28;19924;-68
2023/09/22 06:48:27;;;;;;;;;;;;;;;-140.72;100.00;52930.66;5075141;28;19920;-68
2023/09/22 06:50:53;;;;;;;;;;;;;;;-140.72;100.00;52910.34;5086927;28;19916;-68
2023/09/22 06:53:18;;;;;;;;;;;;;;;-140.72;100.00;52916.44;5080650;28;19926;-69
2023/09/22 06:55:44;;;;;;;;;;;;;;;-140.72;100.00;52920.50;5083778;28;20004;-69
2023/09/22 06:58:09;;;;;;;;;;;;;;;-140.72;100.00;52916.44;5080159;28;20272;-71
2023/09/22 07:00:34;;;;;;;;;;;;;;;-140.72;100.00;52926.59;5079784;28;19924;-71
2023/09/22 07:03:02;;;;;;;;;;;;;;;-140.72;100.00;52900.19;5079647;28;20368;-72
2023/09/22 07:05:27;;;;;;;;;;;;;;;-140.72;100.00;52922.53;5076587;28;20345;-72
2023/09/22 07:07:55;;;;;;;;;;;;;;;-140.72;100.00;52920.50;5070481;28;20020;-71
2023/09/22 07:10:20;;;;;;;;;;;;;;;-140.72;100.00;52881.94;5077314;28;19924;-71
2023/09/22 07:12:45;;;;;;;;;;;;;;;-140.72;100.00;52890.06;5072844;28;20328;-71
2023/09/22 07:15:11;;;;;;;;;;;;;;;-140.72;100.00;52883.97;5088744;28;20285;-71
2023/09/22 07:17:36;;;;;;;;;;;;;;;-140.72;100.00;52892.09;5085241;28;19947;-71
2023/09/22 07:20:04;;;;;;;;;;;;;;;-140.72;100.00;52881.94;5082240;28;19923;-71
2023/09/22 07:22:29;;;;;;;;;;;;;;;-140.72;100.00;52888.03;5077895;28;19966;-71
2023/09/22 07:24:54;;;;;;;;;;;;;;;-140.72;100.00;52890.06;5082721;28;19951;-71
2023/09/22 07:27:20;;;;;;;;;;;;;;;-140.72;100.00;52865.69;5068395;28;20378;-71
2023/09/22 07:29:50;;;;;;;;;;;;;;;-140.72;100.00;52916.44;5076291;28;20002;-72
2023/09/22 07:32:15;;;;;;;;;;;;;;;-140.72;100.00;52875.84;5073326;28;19984;-71
2023/09/22 07:34:40;;;;;;;;;;;;;;;-140.72;100.00;52863.66;5086122;28;19920;-71
2023/09/22 07:37:05;;;;;;;;;;;;;;;-140.72;100.00;52910.34;5087491;28;19931;-71
2023/09/22 07:39:31;;;;;;;;;;;;;;;-140.72;100.00;52886.00;5073757;28;19943;-71
2023/09/22 07:41:56;;;;;;;;;;;;;;;-140.72;100.00;52837.28;5075424;28;19917;-71
2023/09/22 07:44:26;;;;;;;;;;;;;;;-140.72;100.00;52875.84;5089717;28;19920;-71
2023/09/22 07:46:55;;;;;;;;;;;;;;;-140.72;100.00;52898.16;5073806;28;19920;-71
2023/09/22 07:49:21;;;;;;;;;;;;;;;-140.72;100.00;52888.03;5094436;28;20332;-71
2023/09/22 07:51:46;;;;;;;;;;;;;;;-140.72;100.00;52886.00;5073844;28;19920;-70
2023/09/22 07:54:12;;;;;;;;;;;;;;;-140.72;100.00;52859.63;5076951;28;19921;-70
2023/09/22 07:56:37;;;;;;;;;;;;;;;-140.72;100.00;52877.88;5060443;28;19921;-72
2023/09/22 07:59:03;;;;;;;;;;;;;;;-140.72;100.00;52853.53;5069556;28;20409;-70
2023/09/22 08:01:28;;;;;;;;;;;;;;;-140.72;100.00;52920.50;5076547;28;20302;-70
2023/09/22 08:03:54;;;;;;;;;;;;;;;-140.72;100.00;52853.53;5087404;28;19923;-70
2023/09/22 08:06:19;;;;;;;;;;;;;;;-140.72;100.00;52839.31;5070568;28;19921;-69
2023/09/22 08:08:45;;;;;;;;;;;;;;;-140.72;100.00;52863.66;5077708;28;19966;-69
2023/09/22 08:11:10;;;;;;;;;;;;;;;-140.72;100.00;52845.41;5074236;28;19966;-69
2023/09/22 08:13:35;;;;;;;;;;;;;;;-140.72;100.00;52845.41;5089480;28;19960;-70
2023/09/22 08:16:06;;;;;;;;;;;;;;;-140.72;100.00;52869.75;5086730;28;19951;-70
2023/09/22 08:18:37;;;;;;;;;;;;;;;-140.72;100.00;52853.53;5083119;28;19924;-70
2023/09/22 08:21:03;;;;;;;;;;;;;;;-140.72;100.00;52849.47;5077883;28;19963;-70
2023/09/22 08:23:29;;;;;;;;;;;;;;;-140.72;100.00;52869.75;5087963;28;19924;-71
2023/09/22 08:25:56;;;;;;;;;;;;;;;-140.72;100.00;52812.94;5072469;28;20010;-70
2023/09/22 08:28:22;;;;;;;;;;;;;;;-140.72;100.00;52837.28;5080940;28;19923;-70
2023/09/22 08:30:48;;;;;;;;;;;;;;;-140.72;100.00;52819.03;5071197;28;19916;-70
2023/09/22 08:33:13;;;;;;;;;;;;;;;-140.72;100.00;52829.19;5069796;28;19928;-70
2023/09/22 08:35:39;;;;;;;;;;;;;;;-140.72;100.00;52792.66;5070153;28;19932;-70
2023/09/22 08:38:05;;;;;;;;;;;;;;;-140.72;100.00;52857.59;5074145;28;19950;-70
2023/09/22 08:40:30;;;;;;;;;;;;;;;-140.72;100.00;52829.19;5073133;28;20007;-70
2023/09/22 08:42:56;;;;;;;;;;;;;;;-140.72;100.00;52853.53;5078107;28;19923;-70
2023/09/22 08:45:21;;;;;;;;;;;;;;;-140.72;100.00;52877.88;5087061;28;20321;-69
2023/09/22 08:47:47;;;;;;;;;;;;;;;-140.72;100.00;52853.53;5085404;28;20290;-69
2023/09/22 08:50:13;;;;;;;;;;;;;;;-140.72;100.00;52814.97;5070544;28;19928;-69
2023/09/22 08:52:39;;;;;;;;;;;;;;;-140.72;100.00;52778.44;5063099;28;20397;-69
2023/09/22 08:55:08;;;;;;;;;;;;;;;-140.72;100.00;52780.47;5075408;28;19921;-69
2023/09/22 08:57:34;;;;;;;;;;;;;;;-140.72;100.00;52745.97;5081091;28;19966;-69
2023/09/22 08:59:59;;;;;;;;;;;;;;;-140.72;100.00;52782.50;5072366;28;19967;-70
2023/09/22 09:02:25;;;;;;;;;;;;;;;-140.72;100.00;52727.72;5081454;28;19955;-70
2023/09/22 09:04:51;;;;;;;;;;;;;;;-140.72;100.00;52756.13;5083196;28;20026;-70
2023/09/22 09:07:16;;;;;;;;;;;;;;;-140.72;100.00;52792.66;5071840;28;19925;-70
2023/09/22 09:09:47;;;;;;;;;;;;;;;-140.72;100.00;52780.47;5067798;28;19917;-70
2023/09/22 09:12:13;;;;;;;;;;;;;;;-140.72;100.00;52835.25;5076492;28;19928;-70
2023/09/22 09:14:39;;;;;;;;;;;;;;;-140.72;100.00;52819.03;5079298;28;19916;-71
2023/09/22 09:17:18;;;;;;;;;;;;;;;-140.72;100.00;52835.25;5070836;28;20391;-70
2023/09/22 09:19:46;;;;;;;;;;;;;;;-140.72;100.00;52821.06;5071344;28;20382;-70
2023/09/22 09:22:13;;;;;;;;;;;;;;;-140.72;100.00;52804.81;5081585;28;20359;-71
2023/09/22 09:24:38;;;;;;;;;;;;;;;-140.72;100.00;52782.50;5080678;28;20353;-72
2023/09/22 09:27:13;;;;;;;;;;;;;;;-140.72;100.00;52798.72;5071300;28;20007;-71
2023/09/22 09:29:39;;;;;;;;;;;;;;;-140.72;100.00;52802.78;5083356;28;19921;-71
2023/09/22 09:32:32;;;;;;;;;;;;;;;-140.72;100.00;52798.72;5073728;28;20267;-71
2023/09/22 09:34:58;;;;;;;;;;;;;;;-140.72;100.00;52817.00;5064468;28;20291;-72
2023/09/22 09:37:23;;;;;;;;;;;;;;;-140.72;100.00;52780.47;5085762;28;19942;-71
2023/09/22 09:39:52;;;;;;;;;;;;;;;-140.72;100.00;52715.53;5080358;28;19922;-71
2023/09/22 09:42:18;;;;;;;;;;;;;;;-140.72;100.00;52721.63;5084310;28;19988;-70
2023/09/22 09:44:54;;;;;;;;;;;;;;;-140.72;100.00;52715.53;5085669;28;19916;-71
2023/09/22 09:47:24;;;;;;;;;;;;;;;-140.72;100.00;52709.44;5087326;28;20394;-71
2023/09/22 09:49:53;;;;;;;;;;;;;;;-140.72;100.00;52719.59;5060021;28;19917;-71
2023/09/22 09:52:24;;;;;;;;;;;;;;;-140.72;100.00;52717.56;5054719;28;20323;-71
2023/09/22 09:54:52;;;;;;;;;;;;;;;-140.72;100.00;52705.38;5063265;28;19988;-72
2023/09/22 09:57:19;;;;;;;;;;;;;;;-140.72;100.00;52776.41;5075604;28;20363;-70
2023/09/22 09:59:52;;;;;;;;;;;;;;;-140.72;100.00;52772.34;5076987;28;19917;-70
2023/09/22 10:02:20;;;;;;;;;;;;;;;-140.72;100.00;52768.28;5060892;28;19920;-70
2023/09/22 10:04:46;;;;;;;;;;;;;;;-140.72;100.00;52778.44;5068298;28;20359;-70
2023/09/22 10:07:11;;;;;;;;;;;;;;;-140.72;100.00;52723.66;5065931;28;19954;-69
2023/09/22 10:09:36;;;;;;;;;;;;;;;-140.72;100.00;52715.53;5065197;28;19921;-71
2023/09/22 10:12:02;;;;;;;;;;;;;;;-140.72;100.00;52711.47;5066548;28;19920;-71
2023/09/22 10:15:04;;;;;;;;;;;;;;;-140.72;100.00;52713.50;5097996;28;19916;-76
2023/09/22 10:17:30;;;;;;;;;;;;;;;-140.72;100.00;52646.53;5059141;28;19963;-72
2023/09/22 10:19:56;;;;;;;;;;;;;;;-140.72;100.00;52642.47;5066501;28;20271;-71
2023/09/22 10:22:21;;;;;;;;;;;;;;;-140.72;100.00;52561.31;5071034;28;19995;-70
2023/09/22 10:25:06;;;;;;;;;;;;;;;-140.72;100.00;52561.31;5073933;28;21433;-71
2023/09/22 10:31:02;;;;;;;;;;;;;;;-140.72;100.00;52555.22;5073312;28;20393;-71
2023/09/22 10:33:29;;;;;;;;;;;;;;;-140.72;100.00;52565.38;5067310;28;19943;-73
2023/09/22 10:35:55;;;;;;;;;;;;;;;-140.72;100.00;52565.38;5067490;28;19920;-77
2023/09/22 10:38:21;;;;;;;;;;;;;;;-140.72;0.00;52541.03;5068969;28;19920;-71
2023/09/22 10:40:58;;;;;;;;;;;;;;;-140.72;0.00;52630.31;5062082;28;19917;-70
2023/09/22 10:43:24;;;;;;;;;;;;;;;-140.72;0.00;52569.44;5081358;28;20390;-70
2023/09/22 10:45:51;;;;;;;;;;;;;;;-140.72;0.00;52603.94;5064750;28;19924;-70
2023/09/22 10:48:17;;;;;;;;;;;;;;;-140.72;0.00;52534.94;5071985;28;20016;-70
2023/09/22 10:50:43;;;;;;;;;;;;;;;-140.72;0.00;52472.03;5079529;28;19959;-70
2023/09/22 10:53:08;;;;;;;;;;;;;;;-140.72;0.00;52488.25;5068016;28;19921;-72
2023/09/22 10:55:36;;;;;;;;;;;;;;;-140.72;0.00;52490.28;5074396;28;20430;-70
2023/09/22 10:58:04;;;;;;;;;;;;;;;-140.72;0.00;52541.03;5072009;28;19942;-70
2023/09/22 11:00:31;;;;;;;;;;;;;;;-140.72;0.00;52484.19;5066016;28;20796;-70
2023/09/22 11:03:02;;;;;;;;;;;;;;;-140.72;0.00;52407.09;5062909;28;20385;-69
2023/09/22 11:05:28;;;;;;;;;;;;;;;-140.72;0.00;52514.63;5076536;28;19985;-71
2023/09/22 11:07:53;;;;;;;;;;;;;;;-140.72;0.00;52498.41;5066077;28;20019;-70
2023/09/22 11:10:22;;;;;;;;;;;;;;;-140.72;0.00;52447.69;5063653;28;20343;-70
2023/09/22 11:12:51;;;;;;;;;;;;;;;-140.72;0.00;52518.69;5064208;28;19921;-70
2023/09/22 11:15:16;;;;;;;;;;;;;;;-140.72;0.00;52437.53;5066530;28;19994;-74
2023/09/22 11:17:42;;;;;;;;;;;;;;;-140.72;0.00;52433.47;5068673;28;20011;-73
2023/09/22 11:20:12;;;;;;;;;;;;;;;-140.72;0.00;52449.72;5069765;28;19921;-69
2023/09/22 11:22:38;;;;;;;;;;;;;;;-140.72;0.00;52398.97;5064065;28;20391;-69
2023/09/22 11:25:05;;;;;;;;;;;;;;;-140.72;0.00;52394.91;5069324;28;20371;-77
2023/09/22 11:27:30;;;;;;;;;;;;;;;-140.72;0.00;52313.75;5065073;28;19925;-75
2023/09/22 11:30:16;;;;;;;;;;;;;;;-140.72;0.00;52370.56;5072551;28;20010;-72
2023/09/22 11:32:43;;;;;;;;;;;;;;;-140.72;0.00;52362.44;5069262;28;19928;-71
2023/09/22 11:35:08;;;;;;;;;;;;;;;-140.72;0.00;52370.56;5060641;28;20003;-71
2023/09/22 11:37:33;;;;;;;;;;;;;;;-140.72;0.00;52447.69;5072914;28;20445;-71
2023/09/22 11:39:59;;;;;;;;;;;;;;;-140.72;0.00;52569.44;5073687;28;19920;-71
2023/09/22 11:42:24;;;;;;;;;;;;;;;-140.72;0.00;52561.31;5073637;28;20280;-71
2023/09/22 11:44:59;;;;;;;;;;;;;;;-140.72;0.00;52605.94;5074088;28;20284;-72
2023/09/22 11:47:24;;;;;;;;;;;;;;;-140.72;0.00;52652.63;5068639;28;19943;-74
2023/09/22 11:49:49;;;;;;;;;;;;;;;-140.72;0.00;52666.84;5070532;28;20390;-72
2023/09/22 11:52:26;;;;;;;;;;;;;;;-140.72;0.00;52670.88;5071255;28;20500;-71
2023/09/22 11:54:51;;;;;;;;;;;;;;;-140.72;0.00;52618.13;5073823;28;20259;-72
2023/09/22 11:57:17;;;;;;;;;;;;;;;-140.72;0.00;52676.97;5072723;28;19927;-71
2023/09/22 11:59:42;;;;;;;;;;;;;;;-140.72;67.17;52658.72;5070529;28;19921;-71
2023/09/22 12:02:07;;;;;;;;;;;;;;;-140.72;94.11;52666.84;5074319;28;20382;-71
2023/09/22 12:04:37;;;;;;;;;;;;;;;-140.72;100.00;52691.19;5066681;28;19932;-71
2023/09/22 12:07:02;;;;;;;;;;;;;;;-140.72;100.00;52634.38;5076395;28;19920;-79
2023/09/22 12:09:27;;;;;;;;;;;;;;;-140.72;85.68;52681.03;5067397;28;19927;-70
2023/09/22 12:11:53;;;;;;;;;;;;;;;-140.72;94.16;52662.78;5075674;28;19921;-73
2023/09/22 12:14:19;;;;;;;;;;;;;;;-140.72;100.00;52632.34;5065700;28;19955;-74
2023/09/22 12:16:44;;;;;;;;;;;;;;;-140.72;100.00;52674.94;5077594;28;19920;-72
2023/09/22 12:19:09;;;;;;;;;;;;;;;-140.72;100.00;52707.41;5091726;28;20302;-73
2023/09/22 12:21:35;;;;;;;;;;;;;;;-140.72;100.00;52754.09;5064760;28;20038;-73